sensor_id;sensor_type;location;lat;lon;timestamp;P1;durP1;ratioP1;P2;durP2;ratioP2
37847;SDS011;23688;33.130;-117.188;2023-12-04T00:02:05;9.73;;;4.32;;
37847;SDS011;23688;33.130;-117.188;2023-12-04T00:04:31;12.63;;;3.65;;
37847;SDS011;23688;33.130;-117.188;2023-12-04T00:06:58;10.48;;;3.42;;
37847;SDS011;23688;33.130;-117.188;2023-12-04T00:09:24;9.00;;;3.70;;
37847;SDS011;23688;33.130;-117.188;2023-12-04T00:11:52;12.90;;;4.15;;
37847;SDS011;23688;33.130;-117.188;2023-12-04T00:14:18;12.45;;;4.93;;
37847;SDS011;23688;33.130;-117.188;2023-12-04T00:16:45;15.68;;;4.35;;
37847;SDS011;23688;33.130;-117.188;2023-12-04T00:19:11;10.70;;;4.60;;
37847;SDS011;23688;33.130;-117.188;2023-12-04T00:21:37;20.10;;;4.75;;
37847;SDS011;23688;33.130;-117.188;2023-12-04T00:24:04;10.90;;;4.60;;
37847;SDS011;23688;33.130;-117.188;2023-12-04T00:26:30;15.70;;;5.03;;
37847;SDS011;23688;33.130;-117.188;2023-12-04T00:28:57;15.18;;;5.43;;
37847;SDS011;23688;33.130;-117.188;2023-12-04T00:31:23;15.88;;;4.60;;
37847;SDS011;23688;33.130;-117.188;2023-12-04T00:33:50;13.20;;;5.47;;
37847;SDS011;23688;33.130;-117.188;2023-12-04T00:36:16;10.40;;;4.95;;
37847;SDS011;23688;33.130;-117.188;2023-12-04T00:38:44;19.17;;;5.80;;
37847;SDS011;23688;33.130;-117.188;2023-12-04T00:41:11;10.02;;;4.40;;
37847;SDS011;23688;33.130;-117.188;2023-12-04T00:43:38;9.38;;;4.53;;
37847;SDS011;23688;33.130;-117.188;2023-12-04T00:46:04;13.70;;;5.15;;
37847;SDS011;23688;33.130;-117.188;2023-12-04T00:48:31;17.20;;;8.73;;
37847;SDS011;23688;33.130;-117.188;2023-12-04T00:50:57;14.82;;;8.07;;
37847;SDS011;23688;33.130;-117.188;2023-12-04T00:53:24;18.17;;;7.20;;
37847;SDS011;23688;33.130;-117.188;2023-12-04T00:55:50;15.98;;;5.57;;
37847;SDS011;23688;33.130;-117.188;2023-12-04T00:58:16;14.05;;;4.55;;
37847;SDS011;23688;33.130;-117.188;2023-12-04T01:00:42;18.10;;;6.93;;
37847;SDS011;23688;33.130;-117.188;2023-12-04T01:03:09;11.93;;;5.00;;
37847;SDS011;23688;33.130;-117.188;2023-12-04T01:05:35;11.30;;;4.60;;
37847;SDS011;23688;33.130;-117.188;2023-12-04T01:08:01;9.05;;;4.18;;
37847;SDS011;23688;33.130;-117.188;2023-12-04T01:10:28;15.57;;;4.95;;
37847;SDS011;23688;33.130;-117.188;2023-12-04T01:12:54;8.32;;;4.20;;
37847;SDS011;23688;33.130;-117.188;2023-12-04T01:15:20;11.43;;;5.05;;
37847;SDS011;23688;33.130;-117.188;2023-12-04T01:17:49;11.80;;;5.38;;
37847;SDS011;23688;33.130;-117.188;2023-12-04T01:20:15;10.73;;;4.63;;
37847;SDS011;23688;33.130;-117.188;2023-12-04T01:22:41;16.05;;;5.82;;
37847;SDS011;23688;33.130;-117.188;2023-12-04T01:25:08;10.98;;;5.10;;
37847;SDS011;23688;33.130;-117.188;2023-12-04T01:27:35;11.88;;;6.78;;
37847;SDS011;23688;33.130;-117.188;2023-12-04T01:30:03;15.18;;;7.63;;
37847;SDS011;23688;33.130;-117.188;2023-12-04T01:32:33;21.45;;;6.82;;
37847;SDS011;23688;33.130;-117.188;2023-12-04T01:34:59;16.60;;;5.85;;
37847;SDS011;23688;33.130;-117.188;2023-12-04T01:37:26;13.88;;;6.13;;
37847;SDS011;23688;33.130;-117.188;2023-12-04T01:39:52;34.95;;;17.75;;
37847;SDS011;23688;33.130;-117.188;2023-12-04T01:42:19;29.25;;;16.77;;
37847;SDS011;23688;33.130;-117.188;2023-12-04T01:44:45;20.45;;;10.95;;
37847;SDS011;23688;33.130;-117.188;2023-12-04T01:47:12;11.75;;;6.22;;
37847;SDS011;23688;33.130;-117.188;2023-12-04T01:49:38;19.92;;;10.15;;
37847;SDS011;23688;33.130;-117.188;2023-12-04T01:52:05;13.60;;;6.82;;
37847;SDS011;23688;33.130;-117.188;2023-12-04T01:54:32;15.07;;;6.25;;
37847;SDS011;23688;33.130;-117.188;2023-12-04T01:56:58;10.77;;;5.50;;
37847;SDS011;23688;33.130;-117.188;2023-12-04T01:59:25;15.25;;;6.18;;
37847;SDS011;23688;33.130;-117.188;2023-12-04T02:01:52;14.10;;;5.75;;
37847;SDS011;23688;33.130;-117.188;2023-12-04T02:04:19;11.82;;;6.43;;
37847;SDS011;23688;33.130;-117.188;2023-12-04T02:06:45;7.82;;;4.45;;
37847;SDS011;23688;33.130;-117.188;2023-12-04T02:09:12;9.45;;;4.75;;
37847;SDS011;23688;33.130;-117.188;2023-12-04T02:11:39;10.85;;;5.03;;
37847;SDS011;23688;33.130;-117.188;2023-12-04T02:14:05;12.38;;;5.53;;
37847;SDS011;23688;33.130;-117.188;2023-12-04T02:16:32;10.45;;;4.95;;
37847;SDS011;23688;33.130;-117.188;2023-12-04T02:19:07;12.25;;;5.82;;
37847;SDS011;23688;33.130;-117.188;2023-12-04T02:21:34;14.88;;;6.28;;
37847;SDS011;23688;33.130;-117.188;2023-12-04T02:24:00;16.75;;;5.53;;
37847;SDS011;23688;33.130;-117.188;2023-12-04T02:26:31;11.13;;;5.10;;
37847;SDS011;23688;33.130;-117.188;2023-12-04T02:29:06;9.60;;;5.18;;
37847;SDS011;23688;33.130;-117.188;2023-12-04T02:31:37;14.20;;;4.47;;
37847;SDS011;23688;33.130;-117.188;2023-12-04T02:34:06;7.28;;;4.07;;
37847;SDS011;23688;33.130;-117.188;2023-12-04T02:36:34;14.40;;;5.30;;
37847;SDS011;23688;33.130;-117.188;2023-12-04T02:39:01;9.07;;;4.85;;
37847;SDS011;23688;33.130;-117.188;2023-12-04T02:41:28;13.18;;;4.93;;
37847;SDS011;23688;33.130;-117.188;2023-12-04T02:43:54;14.25;;;5.05;;
37847;SDS011;23688;33.130;-117.188;2023-12-04T02:46:20;11.55;;;6.03;;
37847;SDS011;23688;33.130;-117.188;2023-12-04T02:48:47;15.38;;;5.97;;
37847;SDS011;23688;33.130;-117.188;2023-12-04T02:51:13;13.23;;;6.50;;
37847;SDS011;23688;33.130;-117.188;2023-12-04T02:53:40;13.70;;;6.57;;
37847;SDS011;23688;33.130;-117.188;2023-12-04T02:56:06;21.80;;;6.85;;
37847;SDS011;23688;33.130;-117.188;2023-12-04T02:58:32;18.52;;;7.20;;
37847;SDS011;23688;33.130;-117.188;2023-12-04T03:01:00;11.48;;;6.68;;
37847;SDS011;23688;33.130;-117.188;2023-12-04T03:03:26;18.25;;;7.45;;
37847;SDS011;23688;33.130;-117.188;2023-12-04T03:05:52;18.38;;;9.27;;
37847;SDS011;23688;33.130;-117.188;2023-12-04T03:08:19;32.83;;;12.00;;
37847;SDS011;23688;33.130;-117.188;2023-12-04T03:10:45;21.08;;;9.60;;
37847;SDS011;23688;33.130;-117.188;2023-12-04T03:13:11;36.80;;;21.25;;
37847;SDS011;23688;33.130;-117.188;2023-12-04T03:15:37;23.08;;;9.43;;
37847;SDS011;23688;33.130;-117.188;2023-12-04T03:18:04;18.70;;;8.65;;
37847;SDS011;23688;33.130;-117.188;2023-12-04T03:20:31;25.88;;;10.70;;
37847;SDS011;23688;33.130;-117.188;2023-12-04T03:22:58;21.98;;;10.27;;
37847;SDS011;23688;33.130;-117.188;2023-12-04T03:25:26;27.30;;;11.85;;
37847;SDS011;23688;33.130;-117.188;2023-12-04T03:27:52;19.50;;;10.48;;
37847;SDS011;23688;33.130;-117.188;2023-12-04T03:30:19;18.88;;;9.65;;
37847;SDS011;23688;33.130;-117.188;2023-12-04T03:32:45;16.17;;;7.47;;
37847;SDS011;23688;33.130;-117.188;2023-12-04T03:35:12;20.15;;;8.63;;
37847;SDS011;23688;33.130;-117.188;2023-12-04T03:37:38;25.88;;;10.05;;
37847;SDS011;23688;33.130;-117.188;2023-12-04T03:40:05;23.02;;;10.73;;
37847;SDS011;23688;33.130;-117.188;2023-12-04T03:42:31;24.70;;;10.30;;
37847;SDS011;23688;33.130;-117.188;2023-12-04T03:44:58;24.13;;;10.90;;
37847;SDS011;23688;33.130;-117.188;2023-12-04T03:47:24;30.55;;;10.88;;
37847;SDS011;23688;33.130;-117.188;2023-12-04T03:49:50;19.20;;;9.27;;
37847;SDS011;23688;33.130;-117.188;2023-12-04T03:52:21;20.85;;;9.48;;
37847;SDS011;23688;33.130;-117.188;2023-12-04T03:54:47;40.33;;;20.80;;
37847;SDS011;23688;33.130;-117.188;2023-12-04T03:57:13;22.38;;;11.25;;
37847;SDS011;23688;33.130;-117.188;2023-12-04T03:59:39;23.23;;;11.00;;
37847;SDS011;23688;33.130;-117.188;2023-12-04T04:02:06;25.55;;;11.93;;
37847;SDS011;23688;33.130;-117.188;2023-12-04T04:04:32;22.15;;;11.48;;
37847;SDS011;23688;33.130;-117.188;2023-12-04T04:06:59;23.23;;;12.75;;
37847;SDS011;23688;33.130;-117.188;2023-12-04T04:09:25;21.58;;;10.35;;
37847;SDS011;23688;33.130;-117.188;2023-12-04T04:11:52;20.83;;;9.38;;
37847;SDS011;23688;33.130;-117.188;2023-12-04T04:14:18;27.55;;;15.65;;
37847;SDS011;23688;33.130;-117.188;2023-12-04T04:16:45;25.02;;;13.68;;
37847;SDS011;23688;33.130;-117.188;2023-12-04T04:19:11;28.55;;;13.77;;
37847;SDS011;23688;33.130;-117.188;2023-12-04T04:21:40;25.42;;;13.52;;
37847;SDS011;23688;33.130;-117.188;2023-12-04T04:24:06;25.85;;;14.13;;
37847;SDS011;23688;33.130;-117.188;2023-12-04T04:26:34;29.15;;;17.40;;
37847;SDS011;23688;33.130;-117.188;2023-12-04T04:29:00;23.38;;;14.43;;
37847;SDS011;23688;33.130;-117.188;2023-12-04T04:31:29;25.23;;;13.60;;
37847;SDS011;23688;33.130;-117.188;2023-12-04T04:33:55;21.02;;;11.93;;
37847;SDS011;23688;33.130;-117.188;2023-12-04T04:36:22;31.88;;;16.65;;
37847;SDS011;23688;33.130;-117.188;2023-12-04T04:38:48;28.52;;;16.67;;
37847;SDS011;23688;33.130;-117.188;2023-12-04T04:41:15;31.65;;;14.25;;
37847;SDS011;23688;33.130;-117.188;2023-12-04T04:43:42;26.83;;;14.55;;
37847;SDS011;23688;33.130;-117.188;2023-12-04T04:46:08;29.58;;;16.10;;
37847;SDS011;23688;33.130;-117.188;2023-12-04T04:48:35;25.83;;;14.75;;
37847;SDS011;23688;33.130;-117.188;2023-12-04T04:51:02;28.83;;;15.90;;
37847;SDS011;23688;33.130;-117.188;2023-12-04T04:53:30;25.05;;;14.10;;
37847;SDS011;23688;33.130;-117.188;2023-12-04T04:55:56;35.33;;;15.45;;
37847;SDS011;23688;33.130;-117.188;2023-12-04T04:58:23;23.10;;;12.75;;
37847;SDS011;23688;33.130;-117.188;2023-12-04T05:00:49;24.52;;;14.65;;
37847;SDS011;23688;33.130;-117.188;2023-12-04T05:03:15;22.70;;;14.88;;
37847;SDS011;23688;33.130;-117.188;2023-12-04T05:05:42;28.23;;;15.57;;
37847;SDS011;23688;33.130;-117.188;2023-12-04T05:08:09;22.70;;;12.80;;
37847;SDS011;23688;33.130;-117.188;2023-12-04T05:10:35;29.33;;;15.07;;
37847;SDS011;23688;33.130;-117.188;2023-12-04T05:13:03;34.03;;;16.48;;
37847;SDS011;23688;33.130;-117.188;2023-12-04T05:15:29;31.13;;;15.27;;
37847;SDS011;23688;33.130;-117.188;2023-12-04T05:17:56;28.58;;;14.27;;
37847;SDS011;23688;33.130;-117.188;2023-12-04T05:20:22;24.30;;;14.57;;
37847;SDS011;23688;33.130;-117.188;2023-12-04T05:22:49;23.15;;;13.40;;
37847;SDS011;23688;33.130;-117.188;2023-12-04T05:25:15;20.02;;;12.88;;
37847;SDS011;23688;33.130;-117.188;2023-12-04T05:27:41;21.23;;;13.60;;
37847;SDS011;23688;33.130;-117.188;2023-12-04T05:30:08;30.83;;;14.82;;
37847;SDS011;23688;33.130;-117.188;2023-12-04T05:32:34;23.98;;;14.10;;
37847;SDS011;23688;33.130;-117.188;2023-12-04T05:35:01;25.30;;;15.10;;
37847;SDS011;23688;33.130;-117.188;2023-12-04T05:37:28;20.92;;;14.02;;
37847;SDS011;23688;33.130;-117.188;2023-12-04T05:39:54;26.40;;;14.60;;
37847;SDS011;23688;33.130;-117.188;2023-12-04T05:42:21;23.23;;;13.00;;
37847;SDS011;23688;33.130;-117.188;2023-12-04T05:44:51;24.67;;;13.05;;
37847;SDS011;23688;33.130;-117.188;2023-12-04T05:47:21;28.48;;;14.13;;
37847;SDS011;23688;33.130;-117.188;2023-12-04T05:49:47;23.08;;;12.43;;
37847;SDS011;23688;33.130;-117.188;2023-12-04T05:52:13;15.25;;;10.43;;
37847;SDS011;23688;33.130;-117.188;2023-12-04T05:54:40;27.13;;;12.32;;
37847;SDS011;23688;33.130;-117.188;2023-12-04T05:57:06;22.48;;;12.52;;
37847;SDS011;23688;33.130;-117.188;2023-12-04T05:59:32;24.23;;;12.63;;
37847;SDS011;23688;33.130;-117.188;2023-12-04T06:01:59;23.58;;;13.27;;
37847;SDS011;23688;33.130;-117.188;2023-12-04T06:04:26;28.15;;;13.93;;
37847;SDS011;23688;33.130;-117.188;2023-12-04T06:06:55;23.02;;;14.57;;
37847;SDS011;23688;33.130;-117.188;2023-12-04T06:09:22;29.75;;;14.90;;
37847;SDS011;23688;33.130;-117.188;2023-12-04T06:11:48;24.88;;;14.15;;
37847;SDS011;23688;33.130;-117.188;2023-12-04T06:14:14;26.13;;;14.38;;
37847;SDS011;23688;33.130;-117.188;2023-12-04T06:16:41;22.92;;;15.15;;
37847;SDS011;23688;33.130;-117.188;2023-12-04T06:19:07;28.75;;;14.80;;
37847;SDS011;23688;33.130;-117.188;2023-12-04T06:21:35;25.90;;;12.57;;
37847;SDS011;23688;33.130;-117.188;2023-12-04T06:24:01;22.70;;;12.45;;
37847;SDS011;23688;33.130;-117.188;2023-12-04T06:26:28;20.42;;;10.63;;
37847;SDS011;23688;33.130;-117.188;2023-12-04T06:28:57;19.23;;;11.93;;
37847;SDS011;23688;33.130;-117.188;2023-12-04T06:31:23;23.60;;;13.02;;
37847;SDS011;23688;33.130;-117.188;2023-12-04T06:33:50;21.08;;;12.80;;
37847;SDS011;23688;33.130;-117.188;2023-12-04T06:36:17;34.00;;;13.82;;
37847;SDS011;23688;33.130;-117.188;2023-12-04T06:38:44;25.20;;;14.52;;
37847;SDS011;23688;33.130;-117.188;2023-12-04T06:41:13;26.65;;;13.90;;
37847;SDS011;23688;33.130;-117.188;2023-12-04T06:43:40;24.25;;;13.73;;
37847;SDS011;23688;33.130;-117.188;2023-12-04T06:46:07;18.98;;;13.32;;
37847;SDS011;23688;33.130;-117.188;2023-12-04T06:48:34;21.80;;;14.05;;
37847;SDS011;23688;33.130;-117.188;2023-12-04T06:51:00;20.63;;;14.95;;
37847;SDS011;23688;33.130;-117.188;2023-12-04T06:53:27;24.20;;;14.57;;
37847;SDS011;23688;33.130;-117.188;2023-12-04T06:55:53;26.95;;;15.05;;
37847;SDS011;23688;33.130;-117.188;2023-12-04T06:58:19;21.88;;;15.70;;
37847;SDS011;23688;33.130;-117.188;2023-12-04T07:00:46;26.85;;;15.15;;
37847;SDS011;23688;33.130;-117.188;2023-12-04T07:03:13;18.30;;;11.40;;
37847;SDS011;23688;33.130;-117.188;2023-12-04T07:05:41;17.25;;;10.63;;
37847;SDS011;23688;33.130;-117.188;2023-12-04T07:08:09;17.00;;;9.65;;
37847;SDS011;23688;33.130;-117.188;2023-12-04T07:10:36;19.42;;;12.32;;
37847;SDS011;23688;33.130;-117.188;2023-12-04T07:13:02;35.75;;;15.90;;
37847;SDS011;23688;33.130;-117.188;2023-12-04T07:15:29;21.02;;;15.50;;
37847;SDS011;23688;33.130;-117.188;2023-12-04T07:17:55;31.50;;;16.50;;
37847;SDS011;23688;33.130;-117.188;2023-12-04T07:20:21;28.65;;;16.05;;
37847;SDS011;23688;33.130;-117.188;2023-12-04T07:22:49;28.75;;;16.02;;
37847;SDS011;23688;33.130;-117.188;2023-12-04T07:25:15;28.92;;;15.25;;
37847;SDS011;23688;33.130;-117.188;2023-12-04T07:27:42;22.05;;;14.63;;
37847;SDS011;23688;33.130;-117.188;2023-12-04T07:30:08;28.15;;;14.07;;
37847;SDS011;23688;33.130;-117.188;2023-12-04T07:32:35;21.20;;;12.48;;
37847;SDS011;23688;33.130;-117.188;2023-12-04T07:35:04;19.02;;;13.38;;
37847;SDS011;23688;33.130;-117.188;2023-12-04T07:37:31;21.53;;;14.23;;
37847;SDS011;23688;33.130;-117.188;2023-12-04T07:39:57;23.80;;;14.50;;
37847;SDS011;23688;33.130;-117.188;2023-12-04T07:42:25;26.42;;;12.13;;
37847;SDS011;23688;33.130;-117.188;2023-12-04T07:44:51;19.48;;;11.75;;
37847;SDS011;23688;33.130;-117.188;2023-12-04T07:47:18;23.70;;;12.27;;
37847;SDS011;23688;33.130;-117.188;2023-12-04T07:49:44;21.02;;;10.95;;
37847;SDS011;23688;33.130;-117.188;2023-12-04T07:52:11;17.65;;;9.98;;
37847;SDS011;23688;33.130;-117.188;2023-12-04T07:54:39;17.80;;;10.65;;
37847;SDS011;23688;33.130;-117.188;2023-12-04T07:57:05;21.83;;;11.15;;
37847;SDS011;23688;33.130;-117.188;2023-12-04T07:59:32;17.58;;;10.45;;
37847;SDS011;23688;33.130;-117.188;2023-12-04T08:01:58;20.83;;;11.88;;
37847;SDS011;23688;33.130;-117.188;2023-12-04T08:04:24;21.80;;;10.27;;
37847;SDS011;23688;33.130;-117.188;2023-12-04T08:06:50;18.40;;;11.27;;
37847;SDS011;23688;33.130;-117.188;2023-12-04T08:09:17;23.58;;;12.13;;
37847;SDS011;23688;33.130;-117.188;2023-12-04T08:11:43;23.55;;;13.02;;
37847;SDS011;23688;33.130;-117.188;2023-12-04T08:14:10;18.77;;;11.00;;
37847;SDS011;23688;33.130;-117.188;2023-12-04T08:16:36;14.98;;;9.50;;
37847;SDS011;23688;33.130;-117.188;2023-12-04T08:19:02;24.85;;;11.02;;
37847;SDS011;23688;33.130;-117.188;2023-12-04T08:21:29;15.48;;;9.45;;
37847;SDS011;23688;33.130;-117.188;2023-12-04T08:23:57;22.85;;;8.93;;
37847;SDS011;23688;33.130;-117.188;2023-12-04T08:26:23;18.30;;;11.32;;
37847;SDS011;23688;33.130;-117.188;2023-12-04T08:28:51;23.02;;;12.45;;
37847;SDS011;23688;33.130;-117.188;2023-12-04T08:31:17;22.85;;;12.30;;
37847;SDS011;23688;33.130;-117.188;2023-12-04T08:33:44;25.77;;;13.98;;
37847;SDS011;23688;33.130;-117.188;2023-12-04T08:36:11;21.40;;;14.10;;
37847;SDS011;23688;33.130;-117.188;2023-12-04T08:38:38;27.42;;;13.70;;
37847;SDS011;23688;33.130;-117.188;2023-12-04T08:41:04;20.90;;;12.85;;
37847;SDS011;23688;33.130;-117.188;2023-12-04T08:43:31;29.40;;;12.90;;
37847;SDS011;23688;33.130;-117.188;2023-12-04T08:45:57;19.30;;;12.38;;
37847;SDS011;23688;33.130;-117.188;2023-12-04T08:48:25;22.83;;;11.90;;
37847;SDS011;23688;33.130;-117.188;2023-12-04T08:50:52;19.80;;;11.50;;
37847;SDS011;23688;33.130;-117.188;2023-12-04T08:53:18;25.85;;;10.63;;
37847;SDS011;23688;33.130;-117.188;2023-12-04T08:55:44;20.98;;;8.82;;
37847;SDS011;23688;33.130;-117.188;2023-12-04T08:58:11;21.33;;;8.82;;
37847;SDS011;23688;33.130;-117.188;2023-12-04T09:00:37;13.00;;;8.90;;
37847;SDS011;23688;33.130;-117.188;2023-12-04T09:03:08;15.98;;;7.88;;
37847;SDS011;23688;33.130;-117.188;2023-12-04T09:05:38;15.68;;;9.13;;
37847;SDS011;23688;33.130;-117.188;2023-12-04T09:08:04;16.00;;;8.80;;
37847;SDS011;23688;33.130;-117.188;2023-12-04T09:10:30;15.23;;;10.57;;
37847;SDS011;23688;33.130;-117.188;2023-12-04T09:12:57;20.98;;;9.95;;
37847;SDS011;23688;33.130;-117.188;2023-12-04T09:15:23;14.30;;;8.63;;
37847;SDS011;23688;33.130;-117.188;2023-12-04T09:17:49;17.20;;;9.90;;
37847;SDS011;23688;33.130;-117.188;2023-12-04T09:20:16;15.35;;;9.95;;
37847;SDS011;23688;33.130;-117.188;2023-12-04T09:22:42;20.38;;;10.40;;
37847;SDS011;23688;33.130;-117.188;2023-12-04T09:25:08;15.40;;;9.80;;
37847;SDS011;23688;33.130;-117.188;2023-12-04T09:27:35;18.92;;;10.57;;
37847;SDS011;23688;33.130;-117.188;2023-12-04T09:30:01;16.58;;;9.30;;
37847;SDS011;23688;33.130;-117.188;2023-12-04T09:32:28;14.15;;;8.25;;
37847;SDS011;23688;33.130;-117.188;2023-12-04T09:34:54;17.10;;;7.78;;
37847;SDS011;23688;33.130;-117.188;2023-12-04T09:37:21;12.07;;;7.85;;
37847;SDS011;23688;33.130;-117.188;2023-12-04T09:39:47;23.85;;;9.80;;
37847;SDS011;23688;33.130;-117.188;2023-12-04T09:42:15;18.17;;;10.25;;
37847;SDS011;23688;33.130;-117.188;2023-12-04T09:44:47;17.42;;;9.77;;
37847;SDS011;23688;33.130;-117.188;2023-12-04T09:47:20;25.42;;;10.35;;
37847;SDS011;23688;33.130;-117.188;2023-12-04T09:49:47;21.45;;;10.55;;
37847;SDS011;23688;33.130;-117.188;2023-12-04T09:52:17;20.58;;;10.13;;
37847;SDS011;23688;33.130;-117.188;2023-12-04T09:54:45;16.58;;;9.32;;
37847;SDS011;23688;33.130;-117.188;2023-12-04T09:57:12;19.25;;;9.10;;
37847;SDS011;23688;33.130;-117.188;2023-12-04T09:59:39;21.20;;;8.98;;
37847;SDS011;23688;33.130;-117.188;2023-12-04T10:02:06;15.25;;;9.63;;
37847;SDS011;23688;33.130;-117.188;2023-12-04T10:04:32;14.13;;;8.50;;
37847;SDS011;23688;33.130;-117.188;2023-12-04T10:06:59;19.33;;;8.77;;
37847;SDS011;23688;33.130;-117.188;2023-12-04T10:09:26;14.18;;;8.23;;
37847;SDS011;23688;33.130;-117.188;2023-12-04T10:11:52;16.35;;;10.20;;
37847;SDS011;23688;33.130;-117.188;2023-12-04T10:14:21;13.60;;;7.72;;
37847;SDS011;23688;33.130;-117.188;2023-12-04T10:16:48;13.43;;;8.25;;
37847;SDS011;23688;33.130;-117.188;2023-12-04T10:19:16;16.65;;;9.77;;
37847;SDS011;23688;33.130;-117.188;2023-12-04T10:21:54;15.05;;;9.00;;
37847;SDS011;23688;33.130;-117.188;2023-12-04T10:27:01;16.20;;;8.85;;
37847;SDS011;23688;33.130;-117.188;2023-12-04T10:32:20;16.90;;;8.45;;
37847;SDS011;23688;33.130;-117.188;2023-12-04T10:34:47;19.70;;;9.20;;
37847;SDS011;23688;33.130;-117.188;2023-12-04T10:37:14;25.95;;;9.27;;
37847;SDS011;23688;33.130;-117.188;2023-12-04T10:39:45;17.65;;;10.00;;
37847;SDS011;23688;33.130;-117.188;2023-12-04T10:42:28;19.45;;;8.82;;
37847;SDS011;23688;33.130;-117.188;2023-12-04T10:44:58;12.15;;;7.22;;
37847;SDS011;23688;33.130;-117.188;2023-12-04T10:47:25;10.80;;;7.53;;
37847;SDS011;23688;33.130;-117.188;2023-12-04T10:49:53;14.13;;;7.72;;
37847;SDS011;23688;33.130;-117.188;2023-12-04T10:52:20;14.63;;;8.27;;
37847;SDS011;23688;33.130;-117.188;2023-12-04T10:54:47;17.60;;;9.00;;
37847;SDS011;23688;33.130;-117.188;2023-12-04T10:57:16;17.50;;;8.35;;
37847;SDS011;23688;33.130;-117.188;2023-12-04T11:00:04;13.48;;;7.40;;
37847;SDS011;23688;33.130;-117.188;2023-12-04T11:02:33;12.07;;;7.57;;
37847;SDS011;23688;33.130;-117.188;2023-12-04T11:05:09;14.65;;;7.78;;
37847;SDS011;23688;33.130;-117.188;2023-12-04T11:07:40;9.75;;;7.05;;
37847;SDS011;23688;33.130;-117.188;2023-12-04T11:10:13;15.20;;;7.38;;
37847;SDS011;23688;33.130;-117.188;2023-12-04T11:12:43;12.00;;;7.63;;
37847;SDS011;23688;33.130;-117.188;2023-12-04T11:15:12;13.10;;;7.57;;
37847;SDS011;23688;33.130;-117.188;2023-12-04T11:17:42;12.27;;;6.95;;
37847;SDS011;23688;33.130;-117.188;2023-12-04T11:20:16;13.18;;;7.22;;
37847;SDS011;23688;33.130;-117.188;2023-12-04T11:22:45;10.98;;;6.95;;
37847;SDS011;23688;33.130;-117.188;2023-12-04T11:27:39;14.77;;;7.72;;
37847;SDS011;23688;33.130;-117.188;2023-12-04T11:30:06;13.13;;;7.10;;
37847;SDS011;23688;33.130;-117.188;2023-12-04T11:32:55;10.23;;;7.20;;
37847;SDS011;23688;33.130;-117.188;2023-12-04T11:35:25;13.00;;;6.55;;
37847;SDS011;23688;33.130;-117.188;2023-12-04T11:37:52;12.98;;;6.15;;
37847;SDS011;23688;33.130;-117.188;2023-12-04T11:40:18;15.85;;;7.35;;
37847;SDS011;23688;33.130;-117.188;2023-12-04T11:42:44;17.92;;;6.82;;
37847;SDS011;23688;33.130;-117.188;2023-12-04T11:45:20;10.27;;;6.95;;
37847;SDS011;23688;33.130;-117.188;2023-12-04T11:48:04;10.43;;;6.95;;
37847;SDS011;23688;33.130;-117.188;2023-12-04T11:50:31;12.95;;;6.28;;
37847;SDS011;23688;33.130;-117.188;2023-12-04T11:52:59;10.55;;;6.30;;
37847;SDS011;23688;33.130;-117.188;2023-12-04T11:55:28;15.23;;;6.05;;
37847;SDS011;23688;33.130;-117.188;2023-12-04T11:57:55;11.90;;;5.78;;
37847;SDS011;23688;33.130;-117.188;2023-12-04T12:00:23;9.05;;;5.63;;
37847;SDS011;23688;33.130;-117.188;2023-12-04T12:05:20;12.82;;;6.35;;
37847;SDS011;23688;33.130;-117.188;2023-12-04T12:07:47;12.15;;;6.40;;
37847;SDS011;23688;33.130;-117.188;2023-12-04T12:10:14;17.80;;;6.28;;
37847;SDS011;23688;33.130;-117.188;2023-12-04T12:12:42;9.80;;;6.25;;
37847;SDS011;23688;33.130;-117.188;2023-12-04T12:15:09;19.40;;;7.13;;
37847;SDS011;23688;33.130;-117.188;2023-12-04T12:17:40;12.48;;;7.20;;
37847;SDS011;23688;33.130;-117.188;2023-12-04T12:20:08;12.73;;;6.93;;
37847;SDS011;23688;33.130;-117.188;2023-12-04T12:22:36;19.13;;;6.65;;
37847;SDS011;23688;33.130;-117.188;2023-12-04T12:25:06;14.98;;;5.82;;
37847;SDS011;23688;33.130;-117.188;2023-12-04T12:27:34;12.30;;;6.40;;
37847;SDS011;23688;33.130;-117.188;2023-12-04T12:30:00;11.73;;;6.15;;
37847;SDS011;23688;33.130;-117.188;2023-12-04T12:32:28;9.20;;;5.78;;
37847;SDS011;23688;33.130;-117.188;2023-12-04T12:34:55;12.90;;;6.28;;
37847;SDS011;23688;33.130;-117.188;2023-12-04T12:37:21;14.07;;;5.95;;
37847;SDS011;23688;33.130;-117.188;2023-12-04T12:39:48;9.93;;;5.63;;
37847;SDS011;23688;33.130;-117.188;2023-12-04T12:42:22;8.23;;;5.32;;
37847;SDS011;23688;33.130;-117.188;2023-12-04T12:44:48;13.90;;;5.43;;
37847;SDS011;23688;33.130;-117.188;2023-12-04T12:47:15;12.32;;;5.05;;
37847;SDS011;23688;33.130;-117.188;2023-12-04T12:49:41;9.70;;;5.53;;
37847;SDS011;23688;33.130;-117.188;2023-12-04T12:52:08;8.30;;;5.05;;
37847;SDS011;23688;33.130;-117.188;2023-12-04T12:54:37;11.38;;;5.57;;
37847;SDS011;23688;33.130;-117.188;2023-12-04T12:57:04;11.48;;;4.60;;
37847;SDS011;23688;33.130;-117.188;2023-12-04T12:59:32;10.10;;;4.88;;
37847;SDS011;23688;33.130;-117.188;2023-12-04T13:01:59;7.80;;;5.00;;
37847;SDS011;23688;33.130;-117.188;2023-12-04T13:04:26;13.45;;;5.70;;
37847;SDS011;23688;33.130;-117.188;2023-12-04T13:07:12;10.23;;;4.60;;
37847;SDS011;23688;33.130;-117.188;2023-12-04T13:09:39;8.15;;;4.82;;
37847;SDS011;23688;33.130;-117.188;2023-12-04T13:12:06;10.73;;;5.22;;
37847;SDS011;23688;33.130;-117.188;2023-12-04T13:14:33;8.15;;;4.70;;
37847;SDS011;23688;33.130;-117.188;2023-12-04T13:17:04;8.43;;;4.75;;
37847;SDS011;23688;33.130;-117.188;2023-12-04T13:19:31;10.63;;;5.63;;
37847;SDS011;23688;33.130;-117.188;2023-12-04T13:21:59;8.68;;;4.75;;
37847;SDS011;23688;33.130;-117.188;2023-12-04T13:24:26;10.13;;;5.15;;
37847;SDS011;23688;33.130;-117.188;2023-12-04T13:26:53;12.60;;;5.35;;
37847;SDS011;23688;33.130;-117.188;2023-12-04T13:29:24;11.10;;;5.10;;
37847;SDS011;23688;33.130;-117.188;2023-12-04T13:31:50;11.23;;;4.43;;
37847;SDS011;23688;33.130;-117.188;2023-12-04T13:34:17;8.70;;;4.55;;
37847;SDS011;23688;33.130;-117.188;2023-12-04T13:36:43;8.27;;;4.15;;
37847;SDS011;23688;33.130;-117.188;2023-12-04T13:39:09;7.65;;;3.95;;
37847;SDS011;23688;33.130;-117.188;2023-12-04T13:41:45;9.45;;;3.97;;
37847;SDS011;23688;33.130;-117.188;2023-12-04T13:44:31;13.40;;;4.32;;
37847;SDS011;23688;33.130;-117.188;2023-12-04T13:46:58;6.75;;;4.03;;
37847;SDS011;23688;33.130;-117.188;2023-12-04T13:49:25;6.70;;;4.00;;
37847;SDS011;23688;33.130;-117.188;2023-12-04T13:51:51;9.82;;;3.88;;
37847;SDS011;23688;33.130;-117.188;2023-12-04T13:54:18;8.90;;;3.95;;
37847;SDS011;23688;33.130;-117.188;2023-12-04T13:57:03;8.50;;;4.28;;
37847;SDS011;23688;33.130;-117.188;2023-12-04T13:59:29;8.48;;;4.38;;
37847;SDS011;23688;33.130;-117.188;2023-12-04T14:01:58;11.77;;;4.13;;
37847;SDS011;23688;33.130;-117.188;2023-12-04T14:04:25;6.37;;;3.63;;
37847;SDS011;23688;33.130;-117.188;2023-12-04T14:07:00;7.88;;;3.70;;